sensor_id;sensor_type;location;lat;lon;timestamp;temperature;humidity
18083;DHT22;9168;51.194;6.840;2022-08-01T00:00:17;20.30;99.90
18083;DHT22;9168;51.194;6.840;2022-08-01T00:02:45;20.20;99.90
18083;DHT22;9168;51.194;6.840;2022-08-01T00:05:12;20.20;99.90
18083;DHT22;9168;51.194;6.840;2022-08-01T00:07:39;20.20;99.90
18083;DHT22;9168;51.194;6.840;2022-08-01T00:10:11;20.20;99.90
18083;DHT22;9168;51.194;6.840;2022-08-01T00:12:38;20.20;99.90
18083;DHT22;9168;51.194;6.840;2022-08-01T00:15:07;20.20;99.90
18083;DHT22;9168;51.194;6.840;2022-08-01T00:17:35;20.20;99.90
18083;DHT22;9168;51.194;6.840;2022-08-01T00:20:06;20.30;99.90
18083;DHT22;9168;51.194;6.840;2022-08-01T00:22:34;20.20;99.90
18083;DHT22;9168;51.194;6.840;2022-08-01T00:25:02;20.20;99.90
18083;DHT22;9168;51.194;6.840;2022-08-01T00:27:29;20.20;99.90
18083;DHT22;9168;51.194;6.840;2022-08-01T00:29:57;20.20;99.90
18083;DHT22;9168;51.194;6.840;2022-08-01T00:32:23;20.20;99.90
18083;DHT22;9168;51.194;6.840;2022-08-01T00:34:50;20.20;99.90
18083;DHT22;9168;51.194;6.840;2022-08-01T00:37:19;20.20;99.90
18083;DHT22;9168;51.194;6.840;2022-08-01T00:39:45;20.20;99.90
18083;DHT22;9168;51.194;6.840;2022-08-01T00:42:12;20.20;99.90
18083;DHT22;9168;51.194;6.840;2022-08-01T00:44:40;20.20;99.90
18083;DHT22;9168;51.194;6.840;2022-08-01T00:47:07;20.20;99.90
18083;DHT22;9168;51.194;6.840;2022-08-01T00:49:35;20.20;99.90
18083;DHT22;9168;51.194;6.840;2022-08-01T00:52:02;20.20;99.90
18083;DHT22;9168;51.194;6.840;2022-08-01T00:54:31;20.10;99.90
18083;DHT22;9168;51.194;6.840;2022-08-01T00:56:58;20.10;99.90
18083;DHT22;9168;51.194;6.840;2022-08-01T00:59:25;20.10;99.90
18083;DHT22;9168;51.194;6.840;2022-08-01T01:01:52;20.10;99.90
18083;DHT22;9168;51.194;6.840;2022-08-01T01:04:19;20.10;99.90
18083;DHT22;9168;51.194;6.840;2022-08-01T01:06:59;20.10;99.90
18083;DHT22;9168;51.194;6.840;2022-08-01T01:09:40;20.10;99.90
18083;DHT22;9168;51.194;6.840;2022-08-01T01:12:15;20.10;99.90
18083;DHT22;9168;51.194;6.840;2022-08-01T01:14:50;20.10;99.90
18083;DHT22;9168;51.194;6.840;2022-08-01T01:17:21;20.10;99.90
18083;DHT22;9168;51.194;6.840;2022-08-01T01:19:54;20.10;99.90
18083;DHT22;9168;51.194;6.840;2022-08-01T01:22:29;20.10;99.90
18083;DHT22;9168;51.194;6.840;2022-08-01T01:25:09;20.00;99.90
18083;DHT22;9168;51.194;6.840;2022-08-01T01:27:48;20.10;99.90
18083;DHT22;9168;51.194;6.840;2022-08-01T01:30:18;20.00;99.90
18083;DHT22;9168;51.194;6.840;2022-08-01T01:32:48;20.00;99.90
18083;DHT22;9168;51.194;6.840;2022-08-01T01:35:21;20.00;99.90
18083;DHT22;9168;51.194;6.840;2022-08-01T01:38:04;20.00;99.90
18083;DHT22;9168;51.194;6.840;2022-08-01T01:40:34;20.00;99.90
18083;DHT22;9168;51.194;6.840;2022-08-01T01:43:02;19.90;99.90
18083;DHT22;9168;51.194;6.840;2022-08-01T01:45:30;19.90;99.90
18083;DHT22;9168;51.194;6.840;2022-08-01T01:47:58;19.90;99.90
18083;DHT22;9168;51.194;6.840;2022-08-01T01:50:26;19.90;99.90
18083;DHT22;9168;51.194;6.840;2022-08-01T01:52:54;19.90;99.90
18083;DHT22;9168;51.194;6.840;2022-08-01T01:55:23;19.90;99.90
18083;DHT22;9168;51.194;6.840;2022-08-01T01:57:52;19.90;99.90
18083;DHT22;9168;51.194;6.840;2022-08-01T02:00:21;19.90;99.90
18083;DHT22;9168;51.194;6.840;2022-08-01T02:02:51;19.90;99.90
18083;DHT22;9168;51.194;6.840;2022-08-01T02:05:19;19.90;99.90
18083;DHT22;9168;51.194;6.840;2022-08-01T02:07:49;19.90;99.90
18083;DHT22;9168;51.194;6.840;2022-08-01T02:10:18;19.90;99.90
18083;DHT22;9168;51.194;6.840;2022-08-01T02:12:46;19.90;99.90
18083;DHT22;9168;51.194;6.840;2022-08-01T02:15:16;19.90;99.90
18083;DHT22;9168;51.194;6.840;2022-08-01T02:17:47;19.90;99.90
18083;DHT22;9168;51.194;6.840;2022-08-01T02:20:16;19.80;99.90
18083;DHT22;9168;51.194;6.840;2022-08-01T02:22:47;19.80;99.90
18083;DHT22;9168;51.194;6.840;2022-08-01T02:25:20;19.80;99.90
18083;DHT22;9168;51.194;6.840;2022-08-01T02:27:54;19.80;99.90
18083;DHT22;9168;51.194;6.840;2022-08-01T02:30:24;19.80;99.90
18083;DHT22;9168;51.194;6.840;2022-08-01T02:32:57;19.80;99.90
18083;DHT22;9168;51.194;6.840;2022-08-01T02:35:29;19.80;99.90
18083;DHT22;9168;51.194;6.840;2022-08-01T02:37:58;19.80;99.90
18083;DHT22;9168;51.194;6.840;2022-08-01T02:40:28;19.80;99.90
18083;DHT22;9168;51.194;6.840;2022-08-01T02:42:56;19.80;99.90
18083;DHT22;9168;51.194;6.840;2022-08-01T02:45:26;19.70;99.90
18083;DHT22;9168;51.194;6.840;2022-08-01T02:47:57;19.70;99.90
18083;DHT22;9168;51.194;6.840;2022-08-01T02:50:28;19.70;99.90
18083;DHT22;9168;51.194;6.840;2022-08-01T02:52:57;19.70;99.90
18083;DHT22;9168;51.194;6.840;2022-08-01T02:55:25;19.80;99.90
18083;DHT22;9168;51.194;6.840;2022-08-01T02:57:53;19.80;99.90
18083;DHT22;9168;51.194;6.840;2022-08-01T03:00:23;19.80;99.90
18083;DHT22;9168;51.194;6.840;2022-08-01T03:02:51;19.80;99.90
18083;DHT22;9168;51.194;6.840;2022-08-01T03:05:20;19.80;99.90
18083;DHT22;9168;51.194;6.840;2022-08-01T03:07:49;19.80;99.90
18083;DHT22;9168;51.194;6.840;2022-08-01T03:10:18;19.70;99.90
18083;DHT22;9168;51.194;6.840;2022-08-01T03:12:45;19.70;99.90
18083;DHT22;9168;51.194;6.840;2022-08-01T03:15:13;19.70;99.90
18083;DHT22;9168;51.194;6.840;2022-08-01T03:17:43;19.80;99.90
18083;DHT22;9168;51.194;6.840;2022-08-01T03:20:13;19.80;99.90
18083;DHT22;9168;51.194;6.840;2022-08-01T03:22:42;19.80;99.90
18083;DHT22;9168;51.194;6.840;2022-08-01T03:25:12;19.80;99.90
18083;DHT22;9168;51.194;6.840;2022-08-01T03:27:42;19.80;99.90
18083;DHT22;9168;51.194;6.840;2022-08-01T03:30:10;19.80;99.90
18083;DHT22;9168;51.194;6.840;2022-08-01T03:32:38;19.80;99.90
18083;DHT22;9168;51.194;6.840;2022-08-01T03:35:06;19.80;99.90
18083;DHT22;9168;51.194;6.840;2022-08-01T03:37:36;19.80;99.90
18083;DHT22;9168;51.194;6.840;2022-08-01T03:40:09;19.80;99.90
18083;DHT22;9168;51.194;6.840;2022-08-01T03:42:43;19.80;99.90
18083;DHT22;9168;51.194;6.840;2022-08-01T03:45:15;19.80;99.90
18083;DHT22;9168;51.194;6.840;2022-08-01T03:47:47;19.80;99.90
18083;DHT22;9168;51.194;6.840;2022-08-01T03:50:15;19.80;99.90
18083;DHT22;9168;51.194;6.840;2022-08-01T03:52:45;19.70;99.90
18083;DHT22;9168;51.194;6.840;2022-08-01T03:55:15;19.80;99.90
18083;DHT22;9168;51.194;6.840;2022-08-01T03:57:45;19.80;99.90
18083;DHT22;9168;51.194;6.840;2022-08-01T04:00:13;19.80;99.90
18083;DHT22;9168;51.194;6.840;2022-08-01T04:02:44;19.80;99.90
18083;DHT22;9168;51.194;6.840;2022-08-01T04:05:11;19.80;99.90
18083;DHT22;9168;51.194;6.840;2022-08-01T04:07:38;19.80;99.90
18083;DHT22;9168;51.194;6.840;2022-08-01T04:10:08;19.80;99.90
18083;DHT22;9168;51.194;6.840;2022-08-01T04:12:35;19.80;99.90
18083;DHT22;9168;51.194;6.840;2022-08-01T04:15:04;19.80;99.90
18083;DHT22;9168;51.194;6.840;2022-08-01T04:17:31;19.80;99.90
18083;DHT22;9168;51.194;6.840;2022-08-01T04:19:58;19.80;99.90
18083;DHT22;9168;51.194;6.840;2022-08-01T04:22:26;19.80;99.90
18083;DHT22;9168;51.194;6.840;2022-08-01T04:24:54;19.80;99.90
18083;DHT22;9168;51.194;6.840;2022-08-01T04:27:23;19.80;99.90
18083;DHT22;9168;51.194;6.840;2022-08-01T04:29:56;19.80;99.90
18083;DHT22;9168;51.194;6.840;2022-08-01T04:32:27;19.80;99.90
18083;DHT22;9168;51.194;6.840;2022-08-01T04:34:56;19.80;99.90
18083;DHT22;9168;51.194;6.840;2022-08-01T04:37:24;19.80;99.90
18083;DHT22;9168;51.194;6.840;2022-08-01T04:39:52;19.80;99.90
18083;DHT22;9168;51.194;6.840;2022-08-01T04:42:21;19.80;99.90
18083;DHT22;9168;51.194;6.840;2022-08-01T04:44:48;19.80;99.90
18083;DHT22;9168;51.194;6.840;2022-08-01T04:47:16;19.80;99.90
18083;DHT22;9168;51.194;6.840;2022-08-01T04:49:44;19.80;99.90
18083;DHT22;9168;51.194;6.840;2022-08-01T04:52:12;19.80;99.90
18083;DHT22;9168;51.194;6.840;2022-08-01T04:54:39;19.80;99.90
18083;DHT22;9168;51.194;6.840;2022-08-01T04:57:06;19.80;99.90
18083;DHT22;9168;51.194;6.840;2022-08-01T04:59:36;19.80;99.90
18083;DHT22;9168;51.194;6.840;2022-08-01T05:02:07;19.80;99.90
18083;DHT22;9168;51.194;6.840;2022-08-01T05:04:34;19.80;99.90
18083;DHT22;9168;51.194;6.840;2022-08-01T05:07:03;19.80;99.90
18083;DHT22;9168;51.194;6.840;2022-08-01T05:09:30;19.80;99.90
18083;DHT22;9168;51.194;6.840;2022-08-01T05:12:00;19.80;99.90
18083;DHT22;9168;51.194;6.840;2022-08-01T05:14:28;19.80;99.90
18083;DHT22;9168;51.194;6.840;2022-08-01T05:16:57;19.80;99.90
18083;DHT22;9168;51.194;6.840;2022-08-01T05:19:24;19.80;99.90
18083;DHT22;9168;51.194;6.840;2022-08-01T05:21:52;19.80;99.90
18083;DHT22;9168;51.194;6.840;2022-08-01T05:24:20;19.80;99.90
18083;DHT22;9168;51.194;6.840;2022-08-01T05:26:48;19.80;99.90
18083;DHT22;9168;51.194;6.840;2022-08-01T05:29:14;19.80;99.90
18083;DHT22;9168;51.194;6.840;2022-08-01T05:31:41;19.80;99.90
18083;DHT22;9168;51.194;6.840;2022-08-01T05:34:08;19.80;99.90
18083;DHT22;9168;51.194;6.840;2022-08-01T05:36:35;19.80;99.90
18083;DHT22;9168;51.194;6.840;2022-08-01T05:39:03;19.80;99.90
18083;DHT22;9168;51.194;6.840;2022-08-01T05:41:31;19.80;99.90
18083;DHT22;9168;51.194;6.840;2022-08-01T05:43:58;19.80;99.90
18083;DHT22;9168;51.194;6.840;2022-08-01T05:46:25;19.80;99.90
18083;DHT22;9168;51.194;6.840;2022-08-01T05:48:52;19.90;99.90
18083;DHT22;9168;51.194;6.840;2022-08-01T05:51:19;19.90;99.90
18083;DHT22;9168;51.194;6.840;2022-08-01T05:53:45;19.80;99.90
18083;DHT22;9168;51.194;6.840;2022-08-01T05:56:12;19.90;99.90
18083;DHT22;9168;51.194;6.840;2022-08-01T05:58:41;19.90;99.90
18083;DHT22;9168;51.194;6.840;2022-08-01T06:01:07;20.00;99.90
18083;DHT22;9168;51.194;6.840;2022-08-01T06:03:34;20.00;99.90
18083;DHT22;9168;51.194;6.840;2022-08-01T06:06:01;20.00;99.90
18083;DHT22;9168;51.194;6.840;2022-08-01T06:08:29;20.10;99.90
18083;DHT22;9168;51.194;6.840;2022-08-01T06:10:56;20.10;99.90
18083;DHT22;9168;51.194;6.840;2022-08-01T06:13:23;20.10;99.90
18083;DHT22;9168;51.194;6.840;2022-08-01T06:15:51;20.10;99.90
18083;DHT22;9168;51.194;6.840;2022-08-01T06:18:18;20.10;99.90
18083;DHT22;9168;51.194;6.840;2022-08-01T06:20:45;20.20;99.90
18083;DHT22;9168;51.194;6.840;2022-08-01T06:23:12;20.20;99.90
18083;DHT22;9168;51.194;6.840;2022-08-01T06:25:41;20.20;99.90
18083;DHT22;9168;51.194;6.840;2022-08-01T06:28:08;20.30;99.90
18083;DHT22;9168;51.194;6.840;2022-08-01T06:30:35;20.30;99.90
18083;DHT22;9168;51.194;6.840;2022-08-01T06:33:03;20.30;99.90
18083;DHT22;9168;51.194;6.840;2022-08-01T06:35:31;20.40;99.90
18083;DHT22;9168;51.194;6.840;2022-08-01T06:37:58;20.40;99.90
18083;DHT22;9168;51.194;6.840;2022-08-01T06:40:24;20.50;99.90
18083;DHT22;9168;51.194;6.840;2022-08-01T06:42:51;20.50;99.90
18083;DHT22;9168;51.194;6.840;2022-08-01T06:45:18;20.50;99.90
18083;DHT22;9168;51.194;6.840;2022-08-01T06:47:48;20.50;99.90
18083;DHT22;9168;51.194;6.840;2022-08-01T06:50:16;20.60;99.90
18083;DHT22;9168;51.194;6.840;2022-08-01T06:52:43;20.70;99.90
18083;DHT22;9168;51.194;6.840;2022-08-01T06:55:11;20.70;99.90
18083;DHT22;9168;51.194;6.840;2022-08-01T06:57:45;20.70;99.90
18083;DHT22;9168;51.194;6.840;2022-08-01T07:00:13;20.80;99.90
18083;DHT22;9168;51.194;6.840;2022-08-01T07:02:42;20.80;99.90
18083;DHT22;9168;51.194;6.840;2022-08-01T07:05:09;20.90;99.90
18083;DHT22;9168;51.194;6.840;2022-08-01T07:07:37;21.00;99.90
18083;DHT22;9168;51.194;6.840;2022-08-01T07:10:05;21.00;99.90
18083;DHT22;9168;51.194;6.840;2022-08-01T07:12:36;21.00;99.90
18083;DHT22;9168;51.194;6.840;2022-08-01T07:15:04;21.00;99.90
18083;DHT22;9168;51.194;6.840;2022-08-01T07:17:32;21.00;99.90
18083;DHT22;9168;51.194;6.840;2022-08-01T07:19:58;21.00;99.90
18083;DHT22;9168;51.194;6.840;2022-08-01T07:22:25;21.10;99.90
18083;DHT22;9168;51.194;6.840;2022-08-01T07:24:54;21.10;99.90
18083;DHT22;9168;51.194;6.840;2022-08-01T07:27:20;21.00;99.90
18083;DHT22;9168;51.194;6.840;2022-08-01T07:29:47;21.10;99.90
18083;DHT22;9168;51.194;6.840;2022-08-01T07:32:14;21.10;99.90
18083;DHT22;9168;51.194;6.840;2022-08-01T07:34:41;21.10;99.90
18083;DHT22;9168;51.194;6.840;2022-08-01T07:37:08;21.20;99.90
18083;DHT22;9168;51.194;6.840;2022-08-01T07:39:34;21.20;99.90
18083;DHT22;9168;51.194;6.840;2022-08-01T07:42:03;21.30;99.90
18083;DHT22;9168;51.194;6.840;2022-08-01T07:44:30;21.40;99.90
18083;DHT22;9168;51.194;6.840;2022-08-01T07:46:56;21.40;99.90
18083;DHT22;9168;51.194;6.840;2022-08-01T07:49:23;21.40;99.90
18083;DHT22;9168;51.194;6.840;2022-08-01T07:51:50;21.50;99.90
18083;DHT22;9168;51.194;6.840;2022-08-01T07:54:17;21.50;99.90
18083;DHT22;9168;51.194;6.840;2022-08-01T07:56:44;21.50;99.90
18083;DHT22;9168;51.194;6.840;2022-08-01T07:59:12;21.60;99.90
18083;DHT22;9168;51.194;6.840;2022-08-01T08:01:39;21.60;99.90
18083;DHT22;9168;51.194;6.840;2022-08-01T08:04:06;21.60;99.90
18083;DHT22;9168;51.194;6.840;2022-08-01T08:06:33;21.70;99.90
18083;DHT22;9168;51.194;6.840;2022-08-01T08:09:00;21.70;99.90
18083;DHT22;9168;51.194;6.840;2022-08-01T08:11:27;21.70;99.90
18083;DHT22;9168;51.194;6.840;2022-08-01T08:13:54;21.70;99.90
18083;DHT22;9168;51.194;6.840;2022-08-01T08:16:22;21.70;99.90
18083;DHT22;9168;51.194;6.840;2022-08-01T08:18:54;21.70;99.90
18083;DHT22;9168;51.194;6.840;2022-08-01T08:21:24;21.80;99.90
18083;DHT22;9168;51.194;6.840;2022-08-01T08:23:52;21.90;99.90
18083;DHT22;9168;51.194;6.840;2022-08-01T08:26:41;21.90;99.90
18083;DHT22;9168;51.194;6.840;2022-08-01T08:29:09;22.00;99.90
18083;DHT22;9168;51.194;6.840;2022-08-01T08:31:38;22.00;99.90
18083;DHT22;9168;51.194;6.840;2022-08-01T08:34:06;22.00;99.90
18083;DHT22;9168;51.194;6.840;2022-08-01T08:36:33;22.00;99.90
18083;DHT22;9168;51.194;6.840;2022-08-01T08:39:01;22.00;99.90
18083;DHT22;9168;51.194;6.840;2022-08-01T08:41:29;22.00;99.90
18083;DHT22;9168;51.194;6.840;2022-08-01T08:43:57;22.00;99.90
18083;DHT22;9168;51.194;6.840;2022-08-01T08:46:25;22.10;99.90
18083;DHT22;9168;51.194;6.840;2022-08-01T08:48:55;22.10;99.90
18083;DHT22;9168;51.194;6.840;2022-08-01T08:51:25;22.20;99.90
18083;DHT22;9168;51.194;6.840;2022-08-01T08:53:53;22.30;99.90
18083;DHT22;9168;51.194;6.840;2022-08-01T08:56:23;22.40;99.90
18083;DHT22;9168;51.194;6.840;2022-08-01T08:58:51;22.40;99.90
18083;DHT22;9168;51.194;6.840;2022-08-01T09:01:18;22.50;99.90
18083;DHT22;9168;51.194;6.840;2022-08-01T09:03:45;22.50;99.90
18083;DHT22;9168;51.194;6.840;2022-08-01T09:06:13;22.60;99.90
18083;DHT22;9168;51.194;6.840;2022-08-01T09:08:40;22.70;99.90
18083;DHT22;9168;51.194;6.840;2022-08-01T09:11:07;22.80;99.90
18083;DHT22;9168;51.194;6.840;2022-08-01T09:13:34;22.90;99.90
18083;DHT22;9168;51.194;6.840;2022-08-01T09:16:01;23.10;99.90
18083;DHT22;9168;51.194;6.840;2022-08-01T09:18:33;23.20;99.90
18083;DHT22;9168;51.194;6.840;2022-08-01T09:21:13;23.40;99.90
18083;DHT22;9168;51.194;6.840;2022-08-01T09:23:42;23.40;99.90
18083;DHT22;9168;51.194;6.840;2022-08-01T09:26:14;23.50;99.90
18083;DHT22;9168;51.194;6.840;2022-08-01T09:28:42;23.60;99.90
18083;DHT22;9168;51.194;6.840;2022-08-01T09:31:11;23.60;99.90
18083;DHT22;9168;51.194;6.840;2022-08-01T09:33:52;23.60;99.90
18083;DHT22;9168;51.194;6.840;2022-08-01T09:36:22;23.60;99.90
18083;DHT22;9168;51.194;6.840;2022-08-01T09:38:50;23.60;99.90
18083;DHT22;9168;51.194;6.840;2022-08-01T09:41:17;23.80;99.90
18083;DHT22;9168;51.194;6.840;2022-08-01T09:43:54;23.90;99.90
18083;DHT22;9168;51.194;6.840;2022-08-01T09:46:21;24.10;99.90
18083;DHT22;9168;51.194;6.840;2022-08-01T09:48:59;24.20;99.90
18083;DHT22;9168;51.194;6.840;2022-08-01T09:51:32;24.30;99.90
18083;DHT22;9168;51.194;6.840;2022-08-01T09:54:00;24.30;99.90
18083;DHT22;9168;51.194;6.840;2022-08-01T09:56:36;24.30;99.90
18083;DHT22;9168;51.194;6.840;2022-08-01T09:59:03;24.30;99.90
18083;DHT22;9168;51.194;6.840;2022-08-01T10:01:42;24.40;99.90
18083;DHT22;9168;51.194;6.840;2022-08-01T10:04:11;24.40;99.90
18083;DHT22;9168;51.194;6.840;2022-08-01T10:06:40;24.50;99.90
18083;DHT22;9168;51.194;6.840;2022-08-01T10:09:10;24.60;99.90
18083;DHT22;9168;51.194;6.840;2022-08-01T10:11:38;24.70;99.90
18083;DHT22;9168;51.194;6.840;2022-08-01T10:14:05;24.80;99.90
18083;DHT22;9168;51.194;6.840;2022-08-01T10:16:35;24.80;99.90
18083;DHT22;9168;51.194;6.840;2022-08-01T10:19:03;24.90;99.90
18083;DHT22;9168;51.194;6.840;2022-08-01T10:21:32;25.00;99.90
18083;DHT22;9168;51.194;6.840;2022-08-01T10:24:02;25.20;99.90
18083;DHT22;9168;51.194;6.840;2022-08-01T10:26:32;25.40;99.90
18083;DHT22;9168;51.194;6.840;2022-08-01T10:29:00;25.70;99.90
18083;DHT22;9168;51.194;6.840;2022-08-01T10:31:28;25.80;99.90
18083;DHT22;9168;51.194;6.840;2022-08-01T10:33:58;25.80;99.90
18083;DHT22;9168;51.194;6.840;2022-08-01T10:36:26;25.90;99.90
18083;DHT22;9168;51.194;6.840;2022-08-01T10:38:54;25.90;99.90
18083;DHT22;9168;51.194;6.840;2022-08-01T10:41:24;25.90;99.90
18083;DHT22;9168;51.194;6.840;2022-08-01T10:43:52;26.10;99.90
18083;DHT22;9168;51.194;6.840;2022-08-01T10:46:19;26.00;99.90
18083;DHT22;9168;51.194;6.840;2022-08-01T10:48:53;25.90;99.90
18083;DHT22;9168;51.194;6.840;2022-08-01T10:51:21;25.80;99.90
18083;DHT22;9168;51.194;6.840;2022-08-01T10:53:52;25.60;99.90
18083;DHT22;9168;51.194;6.840;2022-08-01T10:56:19;25.40;99.90
18083;DHT22;9168;51.194;6.840;2022-08-01T10:58:49;25.30;99.90
18083;DHT22;9168;51.194;6.840;2022-08-01T11:01:22;25.20;99.90
18083;DHT22;9168;51.194;6.840;2022-08-01T11:04:13;25.20;99.90
18083;DHT22;9168;51.194;6.840;2022-08-01T11:06:51;25.70;99.90
18083;DHT22;9168;51.194;6.840;2022-08-01T11:09:30;26.50;99.90
18083;DHT22;9168;51.194;6.840;2022-08-01T11:12:01;26.90;99.90
18083;DHT22;9168;51.194;6.840;2022-08-01T11:14:31;26.80;99.90
18083;DHT22;9168;51.194;6.840;2022-08-01T11:17:32;26.70;99.90
18083;DHT22;9168;51.194;6.840;2022-08-01T11:20:09;26.50;99.90
18083;DHT22;9168;51.194;6.840;2022-08-01T11:26:11;26.10;99.90
18083;DHT22;9168;51.194;6.840;2022-08-01T11:28:40;26.50;99.90
18083;DHT22;9168;51.194;6.840;2022-08-01T11:31:30;27.10;99.90
18083;DHT22;9168;51.194;6.840;2022-08-01T11:33:58;27.90;99.90
18083;DHT22;9168;51.194;6.840;2022-08-01T11:36:26;28.40;99.90
18083;DHT22;9168;51.194;6.840;2022-08-01T11:39:17;28.60;99.90
18083;DHT22;9168;51.194;6.840;2022-08-01T11:41:47;28.40;99.90
18083;DHT22;9168;51.194;6.840;2022-08-01T11:44:19;28.10;99.90
18083;DHT22;9168;51.194;6.840;2022-08-01T11:46:54;28.30;99.90
18083;DHT22;9168;51.194;6.840;2022-08-01T11:49:34;28.80;99.90
18083;DHT22;9168;51.194;6.840;2022-08-01T11:52:11;29.40;99.90
18083;DHT22;9168;51.194;6.840;2022-08-01T11:54:40;29.70;99.90
18083;DHT22;9168;51.194;6.840;2022-08-01T11:57:08;29.90;99.90
18083;DHT22;9168;51.194;6.840;2022-08-01T11:59:38;30.30;99.90
18083;DHT22;9168;51.194;6.840;2022-08-01T12:02:17;30.70;99.90
18083;DHT22;9168;51.194;6.840;2022-08-01T12:04:45;31.00;99.90
18083;DHT22;9168;51.194;6.840;2022-08-01T12:07:13;31.40;99.90
18083;DHT22;9168;51.194;6.840;2022-08-01T12:09:40;31.80;99.90
18083;DHT22;9168;51.194;6.840;2022-08-01T12:12:07;31.90;99.90
18083;DHT22;9168;51.194;6.840;2022-08-01T12:14:35;32.00;96.80
18083;DHT22;9168;51.194;6.840;2022-08-01T12:17:02;32.00;96.80
18083;DHT22;9168;51.194;6.840;2022-08-01T12:19:30;32.30;98.70
18083;DHT22;9168;51.194;6.840;2022-08-01T12:22:08;32.40;99.00
18083;DHT22;9168;51.194;6.840;2022-08-01T12:24:35;32.50;98.00
18083;DHT22;9168;51.194;6.840;2022-08-01T12:27:03;32.60;99.60
18083;DHT22;9168;51.194;6.840;2022-08-01T12:29:34;32.60;96.70
18083;DHT22;9168;51.194;6.840;2022-08-01T12:32:01;32.80;97.40
18083;DHT22;9168;51.194;6.840;2022-08-01T12:34:30;33.10;97.80
18083;DHT22;9168;51.194;6.840;2022-08-01T12:37:00;33.40;95.20
18083;DHT22;9168;51.194;6.840;2022-08-01T12:39:34;33.50;95.40
18083;DHT22;9168;51.194;6.840;2022-08-01T12:42:01;33.80;94.50
18083;DHT22;9168;51.194;6.840;2022-08-01T12:44:31;33.90;94.60
18083;DHT22;9168;51.194;6.840;2022-08-01T12:46:59;34.10;94.10
18083;DHT22;9168;51.194;6.840;2022-08-01T12:49:27;33.90;93.50
18083;DHT22;9168;51.194;6.840;2022-08-01T12:51:55;33.20;93.90
18083;DHT22;9168;51.194;6.840;2022-08-01T12:54:23;32.40;93.90
18083;DHT22;9168;51.194;6.840;2022-08-01T12:56:51;31.70;94.30
18083;DHT22;9168;51.194;6.840;2022-08-01T12:59:20;31.10;93.60
18083;DHT22;9168;51.194;6.840;2022-08-01T13:01:48;30.80;95.20
18083;DHT22;9168;51.194;6.840;2022-08-01T13:04:15;30.90;95.90
18083;DHT22;9168;51.194;6.840;2022-08-01T13:06:42;31.30;95.90
18083;DHT22;9168;51.194;6.840;2022-08-01T13:09:10;31.80;93.40
18083;DHT22;9168;51.194;6.840;2022-08-01T13:11:38;32.20;93.30
18083;DHT22;9168;51.194;6.840;2022-08-01T13:14:06;32.50;92.90
18083;DHT22;9168;51.194;6.840;2022-08-01T13:16:45;33.00;93.30
18083;DHT22;9168;51.194;6.840;2022-08-01T13:19:12;32.90;91.80
18083;DHT22;9168;51.194;6.840;2022-08-01T13:21:53;32.50;92.10
18083;DHT22;9168;51.194;6.840;2022-08-01T13:24:26;32.40;93.30
18083;DHT22;9168;51.194;6.840;2022-08-01T13:26:56;31.90;93.30
18083;DHT22;9168;51.194;6.840;2022-08-01T13:29:33;31.30;94.00
18083;DHT22;9168;51.194;6.840;2022-08-01T13:32:00;30.70;95.60
18083;DHT22;9168;51.194;6.840;2022-08-01T13:34:38;30.30;96.50
18083;DHT22;9168;51.194;6.840;2022-08-01T13:37:04;30.10;97.00
18083;DHT22;9168;51.194;6.840;2022-08-01T13:39:33;29.90;95.80
18083;DHT22;9168;51.194;6.840;2022-08-01T13:42:12;29.80;97.10
18083;DHT22;9168;51.194;6.840;2022-08-01T13:44:39;29.80;96.60
18083;DHT22;9168;51.194;6.840;2022-08-01T13:47:07;29.80;97.10
18083;DHT22;9168;51.194;6.840;2022-08-01T13:49:34;29.50;96.90
18083;DHT22;9168;51.194;6.840;2022-08-01T13:52:02;29.40;97.40
18083;DHT22;9168;51.194;6.840;2022-08-01T13:54:32;29.30;98.00
18083;DHT22;9168;51.194;6.840;2022-08-01T13:56:59;29.20;97.10
18083;DHT22;9168;51.194;6.840;2022-08-01T13:59:26;29.00;97.30
18083;DHT22;9168;51.194;6.840;2022-08-01T14:01:53;28.90;96.80
18083;DHT22;9168;51.194;6.840;2022-08-01T14:04:20;28.80;97.10
18083;DHT22;9168;51.194;6.840;2022-08-01T14:06:47;28.90;98.80
18083;DHT22;9168;51.194;6.840;2022-08-01T14:09:14;28.90;98.10
18083;DHT22;9168;51.194;6.840;2022-08-01T14:11:46;28.90;98.50
18083;DHT22;9168;51.194;6.840;2022-08-01T14:14:13;28.80;98.90
18083;DHT22;9168;51.194;6.840;2022-08-01T14:16:40;28.70;99.60
18083;DHT22;9168;51.194;6.840;2022-08-01T14:19:10;28.60;99.40
18083;DHT22;9168;51.194;6.840;2022-08-01T14:21:37;28.50;99.60
18083;DHT22;9168;51.194;6.840;2022-08-01T14:24:04;28.50;99.30
18083;DHT22;9168;51.194;6.840;2022-08-01T14:26:32;28.40;99.90
18083;DHT22;9168;51.194;6.840;2022-08-01T14:29:00;28.50;99.90
18083;DHT22;9168;51.194;6.840;2022-08-01T14:31:27;28.50;99.90
18083;DHT22;9168;51.194;6.840;2022-08-01T14:33:54;28.50;99.90
18083;DHT22;9168;51.194;6.840;2022-08-01T14:36:21;28.30;99.90
18083;DHT22;9168;51.194;6.840;2022-08-01T14:38:48;28.20;99.90
18083;DHT22;9168;51.194;6.840;2022-08-01T14:41:15;28.10;99.90
18083;DHT22;9168;51.194;6.840;2022-08-01T14:43:42;27.90;99.90
18083;DHT22;9168;51.194;6.840;2022-08-01T14:46:11;27.70;99.90
18083;DHT22;9168;51.194;6.840;2022-08-01T14:48:38;27.70;99.90
18083;DHT22;9168;51.194;6.840;2022-08-01T14:51:06;27.60;99.90
18083;DHT22;9168;51.194;6.840;2022-08-01T14:53:33;27.60;99.90
18083;DHT22;9168;51.194;6.840;2022-08-01T14:56:01;27.60;99.90
18083;DHT22;9168;51.194;6.840;2022-08-01T14:58:28;27.50;99.90
18083;DHT22;9168;51.194;6.840;2022-08-01T15:00:55;27.50;99.90
18083;DHT22;9168;51.194;6.840;2022-08-01T15:03:23;27.40;99.90
18083;DHT22;9168;51.194;6.840;2022-08-01T15:05:50;27.50;99.90
18083;DHT22;9168;51.194;6.840;2022-08-01T15:08:17;27.50;99.90
18083;DHT22;9168;51.194;6.840;2022-08-01T15:10:44;27.50;99.90
18083;DHT22;9168;51.194;6.840;2022-08-01T15:13:11;27.60;99.90
18083;DHT22;9168;51.194;6.840;2022-08-01T15:15:38;27.70;99.90
18083;DHT22;9168;51.194;6.840;2022-08-01T15:18:05;27.60;99.90
18083;DHT22;9168;51.194;6.840;2022-08-01T15:20:34;27.60;99.90
18083;DHT22;9168;51.194;6.840;2022-08-01T15:23:01;27.60;99.90
18083;DHT22;9168;51.194;6.840;2022-08-01T15:25:29;27.50;99.90
18083;DHT22;9168;51.194;6.840;2022-08-01T15:27:56;27.50;99.90
18083;DHT22;9168;51.194;6.840;2022-08-01T15:30:23;27.50;99.90
18083;DHT22;9168;51.194;6.840;2022-08-01T15:32:49;27.40;99.90
18083;DHT22;9168;51.194;6.840;2022-08-01T15:35:16;27.20;99.90
18083;DHT22;9168;51.194;6.840;2022-08-01T15:37:45;27.00;99.90
18083;DHT22;9168;51.194;6.840;2022-08-01T15:40:12;26.90;99.90
18083;DHT22;9168;51.194;6.840;2022-08-01T15:42:39;26.70;99.90
18083;DHT22;9168;51.194;6.840;2022-08-01T15:45:06;26.60;99.90
18083;DHT22;9168;51.194;6.840;2022-08-01T15:47:34;26.40;99.90
18083;DHT22;9168;51.194;6.840;2022-08-01T15:50:01;26.30;99.90
18083;DHT22;9168;51.194;6.840;2022-08-01T15:52:29;26.20;99.90
18083;DHT22;9168;51.194;6.840;2022-08-01T15:54:58;26.00;99.90
18083;DHT22;9168;51.194;6.840;2022-08-01T15:57:25;25.90;99.90
18083;DHT22;9168;51.194;6.840;2022-08-01T15:59:52;25.80;99.90